NEW EXCHEQUER-LK MCCLURE (EXC)

Elevation: 879' · MERCED R basin · Operator: Merced Irrigation District

Provisional data, subject to change.
Query executed Monday at 15:03:45   clock

Select a sensor type for a plot of data.
Note: Reservoir Flows are daily averages.

Earlier

Date RES ELE    STORAGE    RES CHG    TOC STO    ABV TOC    OUTFLOW    INFLOW    PPT INC    TEMP MN    TEMP MX    TEMP AV   
 FEET   AF   AF   AF   AF   CFS   CFS   INCHES   DEG F   DEG F   DEG F  
06/07/2015 636.61 132276 240 994165 -861889 241 402 0.00 -- -- --
06/08/2015 636.79 132564 -96 997970 -865406 258 403 0.00 -- -- --
06/09/2015 636.62 132292 -560 1001774 -869482 442 305 0.00 -- -- --
06/10/2015 637.09 133044 368 1005538 -872494 61 440 0.00 -- -- --
06/11/2015 637.34 133444 -64 1006304 -872860 292 494 0.00 -- -- --
06/12/2015 637.47 133652 -208 1007033 -873381 366 471 0.00 -- -- --
06/13/2015 637.53 133748 -208 1007601 -873853 320 369 0.00 -- -- --
06/14/2015 637.81 134196 -- 1008334 -874138 247 473 0.00 73 95 87
06/15/2015 638.09 134644 32 1009182 -874538 320 546 0.00 -- -- --
06/16/2015 638.16 134756 -336 1009655 -874899 252 309 0.00 -- -- --
06/17/2015 638.16 134756 -208 1009935 -875179 188 188 0.00 -- -- --
06/18/2015 638.11 134676 -512 1010284 -875608 272 231 0.00 -- -- --
06/19/2015 638.04 134564 -416 1010545 -- 232 176 0.00 -- -- --
06/20/2015 638.00 134500 -320 1010846 -876346 233 201 0.00 -- -- --
06/21/2015 637.96 134436 -448 1011149 -876713 234 202 0.00 -- -- --
06/22/2015 637.87 134292 -496 1011398 -877106 241 168 0.00 -- -- --
06/23/2015 637.66 133956 -512 1011623 -877667 322 153 0.00 -- -- --
06/24/2015 637.49 133684 -560 1011813 -878129 268 131 0.00 -- -- --
06/25/2015 637.17 133172 -784 1011979 -878807 374 116 0.00 -- -- --
06/26/2015 636.88 132708 -544 1012082 -879374 310 76 0.00 -- -- --
06/27/2015 636.79 132564 -208 1012383 -879819 273 201 0.00 -- -- --
06/28/2015 636.53 132148 -512 1012420 -- 245 35 0.00 -- -- --
06/29/2015 636.25 131700 -576 1012566 -880866 329 103 0.00 -- -- --
06/30/2015 635.38 130308 -1232 1012691 -882383 792 90 0.00 -- -- --
07/01/2015 634.08 128228 -1488 1012691 -884463 1043 0 0.00 -- -- --
07/02/2015 633.22 126852 -1408 1012867 -886015 805 111 0.00 -- -- --
07/03/2015 632.24 125284 -1552 1012632 -887348 852 61 0.00 -- -- --
07/04/2015 631.39 123924 -1296 1012538 -888614 832 146 0.00 -- -- --
07/05/2015 360.85 123060 -1008 1012441 -889381 577 141 0.00 -- -- --
07/06/2015 -- -- -- -- -- -- -- -- -- -- --

Later | Latest

Warning! This data is preliminary and subject to revision.

Show EXC Map | Plot EXC Data | 1 Month EXC Data | Real-Time EXC Data | EXC Info